sensor_id;sensor_type;location;lat;lon;timestamp;P1;durP1;ratioP1;P2;durP2;ratioP2
70213;SDS011;60138;55.808;37.078;2022-11-04T00:00:09;30.57;;;11.40;;
70213;SDS011;60138;55.808;37.078;2022-11-04T00:02:35;23.73;;;11.43;;
70213;SDS011;60138;55.808;37.078;2022-11-04T00:05:01;25.73;;;11.73;;
70213;SDS011;60138;55.808;37.078;2022-11-04T00:07:28;29.27;;;13.80;;
70213;SDS011;60138;55.808;37.078;2022-11-04T00:09:54;32.13;;;13.10;;
70213;SDS011;60138;55.808;37.078;2022-11-04T00:12:19;23.23;;;11.40;;
70213;SDS011;60138;55.808;37.078;2022-11-04T00:14:45;26.20;;;12.40;;
70213;SDS011;60138;55.808;37.078;2022-11-04T00:17:11;26.38;;;12.73;;
70213;SDS011;60138;55.808;37.078;2022-11-04T00:19:37;27.52;;;13.18;;
70213;SDS011;60138;55.808;37.078;2022-11-04T00:22:03;30.43;;;13.80;;
70213;SDS011;60138;55.808;37.078;2022-11-04T00:24:28;30.85;;;12.45;;
70213;SDS011;60138;55.808;37.078;2022-11-04T00:26:54;27.45;;;13.00;;
70213;SDS011;60138;55.808;37.078;2022-11-04T00:29:20;30.77;;;12.17;;
70213;SDS011;60138;55.808;37.078;2022-11-04T00:31:46;28.05;;;13.18;;
70213;SDS011;60138;55.808;37.078;2022-11-04T00:34:11;37.07;;;14.73;;
70213;SDS011;60138;55.808;37.078;2022-11-04T00:36:37;31.95;;;12.93;;
70213;SDS011;60138;55.808;37.078;2022-11-04T00:39:03;28.50;;;12.30;;
70213;SDS011;60138;55.808;37.078;2022-11-04T00:41:28;34.13;;;13.63;;
70213;SDS011;60138;55.808;37.078;2022-11-04T00:43:55;23.73;;;11.57;;
70213;SDS011;60138;55.808;37.078;2022-11-04T00:46:25;24.08;;;11.68;;
70213;SDS011;60138;55.808;37.078;2022-11-04T00:48:52;25.20;;;12.27;;
70213;SDS011;60138;55.808;37.078;2022-11-04T00:51:17;31.07;;;13.17;;
70213;SDS011;60138;55.808;37.078;2022-11-04T00:53:43;29.33;;;12.23;;
70213;SDS011;60138;55.808;37.078;2022-11-04T00:56:09;25.97;;;12.50;;
70213;SDS011;60138;55.808;37.078;2022-11-04T00:58:35;19.90;;;9.88;;
70213;SDS011;60138;55.808;37.078;2022-11-04T01:01:06;26.58;;;12.80;;
70213;SDS011;60138;55.808;37.078;2022-11-04T01:03:35;20.97;;;10.63;;
70213;SDS011;60138;55.808;37.078;2022-11-04T01:06:01;25.55;;;13.27;;
70213;SDS011;60138;55.808;37.078;2022-11-04T01:08:27;30.60;;;12.47;;
70213;SDS011;60138;55.808;37.078;2022-11-04T01:10:52;31.23;;;13.07;;
70213;SDS011;60138;55.808;37.078;2022-11-04T01:13:18;28.00;;;12.90;;
70213;SDS011;60138;55.808;37.078;2022-11-04T01:15:44;31.73;;;15.65;;
70213;SDS011;60138;55.808;37.078;2022-11-04T01:18:09;28.67;;;12.30;;
70213;SDS011;60138;55.808;37.078;2022-11-04T01:20:35;32.45;;;13.73;;
70213;SDS011;60138;55.808;37.078;2022-11-04T01:23:01;28.00;;;11.80;;
70213;SDS011;60138;55.808;37.078;2022-11-04T01:25:26;26.73;;;13.07;;
70213;SDS011;60138;55.808;37.078;2022-11-04T01:27:52;28.80;;;12.40;;
70213;SDS011;60138;55.808;37.078;2022-11-04T01:30:19;25.90;;;12.13;;
70213;SDS011;60138;55.808;37.078;2022-11-04T01:32:45;25.10;;;12.30;;
70213;SDS011;60138;55.808;37.078;2022-11-04T01:35:11;24.13;;;12.17;;
70213;SDS011;60138;55.808;37.078;2022-11-04T01:37:36;24.23;;;13.45;;
70213;SDS011;60138;55.808;37.078;2022-11-04T01:40:02;23.07;;;12.27;;
70213;SDS011;60138;55.808;37.078;2022-11-04T01:42:28;25.52;;;13.30;;
70213;SDS011;60138;55.808;37.078;2022-11-04T01:44:55;22.20;;;11.47;;
70213;SDS011;60138;55.808;37.078;2022-11-04T01:47:23;21.27;;;9.90;;
70213;SDS011;60138;55.808;37.078;2022-11-04T01:49:58;23.35;;;11.05;;
70213;SDS011;60138;55.808;37.078;2022-11-04T01:53:03;25.93;;;12.60;;
70213;SDS011;60138;55.808;37.078;2022-11-04T01:55:22;23.00;;;11.95;;
70213;SDS011;60138;55.808;37.078;2022-11-04T01:57:50;26.75;;;11.20;;
70213;SDS011;60138;55.808;37.078;2022-11-04T02:00:19;20.40;;;9.77;;
70213;SDS011;60138;55.808;37.078;2022-11-04T02:02:48;21.48;;;11.18;;
70213;SDS011;60138;55.808;37.078;2022-11-04T02:05:18;27.50;;;11.98;;
70213;SDS011;60138;55.808;37.078;2022-11-04T02:07:47;23.75;;;10.55;;
70213;SDS011;60138;55.808;37.078;2022-11-04T02:10:15;24.60;;;11.65;;
70213;SDS011;60138;55.808;37.078;2022-11-04T02:12:42;19.40;;;8.05;;
70213;SDS011;60138;55.808;37.078;2022-11-04T02:15:08;23.17;;;10.73;;
70213;SDS011;60138;55.808;37.078;2022-11-04T02:23:25;24.38;;;11.50;;
70213;SDS011;60138;55.808;37.078;2022-11-04T02:28:47;20.63;;;10.52;;
70213;SDS011;60138;55.808;37.078;2022-11-04T02:34:10;18.40;;;10.90;;
70213;SDS011;60138;55.808;37.078;2022-11-04T02:36:56;19.45;;;9.15;;
70213;SDS011;60138;55.808;37.078;2022-11-04T02:39:37;20.52;;;10.43;;
70213;SDS011;60138;55.808;37.078;2022-11-04T02:42:36;25.00;;;10.60;;
70213;SDS011;60138;55.808;37.078;2022-11-04T02:47:55;19.05;;;10.07;;
70213;SDS011;60138;55.808;37.078;2022-11-04T02:50:33;16.67;;;8.77;;
70213;SDS011;60138;55.808;37.078;2022-11-04T02:53:13;20.60;;;10.00;;
70213;SDS011;60138;55.808;37.078;2022-11-04T02:55:44;16.77;;;8.88;;
70213;SDS011;60138;55.808;37.078;2022-11-04T02:58:17;17.83;;;8.63;;
70213;SDS011;60138;55.808;37.078;2022-11-04T03:00:56;15.60;;;8.25;;
70213;SDS011;60138;55.808;37.078;2022-11-04T03:03:24;12.65;;;7.45;;
70213;SDS011;60138;55.808;37.078;2022-11-04T03:05:53;20.02;;;9.70;;
70213;SDS011;60138;55.808;37.078;2022-11-04T03:08:23;17.05;;;9.55;;
70213;SDS011;60138;55.808;37.078;2022-11-04T03:10:58;15.98;;;8.52;;
70213;SDS011;60138;55.808;37.078;2022-11-04T03:13:30;18.17;;;9.32;;
70213;SDS011;60138;55.808;37.078;2022-11-04T03:16:01;19.20;;;10.23;;
70213;SDS011;60138;55.808;37.078;2022-11-04T03:21:11;21.13;;;10.55;;
70213;SDS011;60138;55.808;37.078;2022-11-04T03:23:38;18.30;;;9.50;;
70213;SDS011;60138;55.808;37.078;2022-11-04T03:26:10;18.38;;;9.45;;
70213;SDS011;60138;55.808;37.078;2022-11-04T03:28:49;15.52;;;8.38;;
70213;SDS011;60138;55.808;37.078;2022-11-04T03:31:28;17.45;;;8.27;;
70213;SDS011;60138;55.808;37.078;2022-11-04T03:34:04;19.95;;;8.80;;
70213;SDS011;60138;55.808;37.078;2022-11-04T03:36:30;16.35;;;8.32;;
70213;SDS011;60138;55.808;37.078;2022-11-04T03:38:55;15.50;;;8.10;;
70213;SDS011;60138;55.808;37.078;2022-11-04T03:41:32;17.70;;;9.30;;
70213;SDS011;60138;55.808;37.078;2022-11-04T03:44:03;15.95;;;7.82;;
70213;SDS011;60138;55.808;37.078;2022-11-04T03:46:28;20.40;;;10.38;;
70213;SDS011;60138;55.808;37.078;2022-11-04T03:48:54;17.50;;;9.63;;
70213;SDS011;60138;55.808;37.078;2022-11-04T03:51:23;15.25;;;8.55;;
70213;SDS011;60138;55.808;37.078;2022-11-04T03:53:48;19.13;;;9.27;;
70213;SDS011;60138;55.808;37.078;2022-11-04T03:57:01;14.90;;;8.02;;
70213;SDS011;60138;55.808;37.078;2022-11-04T04:05:02;15.93;;;7.90;;
70213;SDS011;60138;55.808;37.078;2022-11-04T04:13:18;16.27;;;7.50;;
70213;SDS011;60138;55.808;37.078;2022-11-04T04:19:10;15.73;;;7.78;;
70213;SDS011;60138;55.808;37.078;2022-11-04T04:21:22;16.15;;;7.47;;
70213;SDS011;60138;55.808;37.078;2022-11-04T04:23:52;15.77;;;8.68;;
70213;SDS011;60138;55.808;37.078;2022-11-04T04:26:20;12.25;;;6.13;;
70213;SDS011;60138;55.808;37.078;2022-11-04T04:28:49;14.85;;;8.45;;
70213;SDS011;60138;55.808;37.078;2022-11-04T04:31:15;18.50;;;8.80;;
70213;SDS011;60138;55.808;37.078;2022-11-04T04:33:41;14.93;;;8.77;;
70213;SDS011;60138;55.808;37.078;2022-11-04T04:36:07;9.53;;;6.73;;
70213;SDS011;60138;55.808;37.078;2022-11-04T04:38:34;15.95;;;7.65;;
70213;SDS011;60138;55.808;37.078;2022-11-04T04:43:44;12.77;;;7.38;;
70213;SDS011;60138;55.808;37.078;2022-11-04T04:46:09;14.63;;;8.15;;
70213;SDS011;60138;55.808;37.078;2022-11-04T04:48:36;20.00;;;8.65;;
70213;SDS011;60138;55.808;37.078;2022-11-04T04:51:02;15.93;;;8.20;;
70213;SDS011;60138;55.808;37.078;2022-11-04T04:53:27;16.35;;;8.43;;
70213;SDS011;60138;55.808;37.078;2022-11-04T04:55:53;14.17;;;7.67;;
70213;SDS011;60138;55.808;37.078;2022-11-04T04:58:18;16.47;;;8.50;;
70213;SDS011;60138;55.808;37.078;2022-11-04T05:00:44;15.27;;;7.88;;
70213;SDS011;60138;55.808;37.078;2022-11-04T05:03:10;15.77;;;8.43;;
70213;SDS011;60138;55.808;37.078;2022-11-04T05:05:35;13.70;;;7.93;;
70213;SDS011;60138;55.808;37.078;2022-11-04T05:08:05;16.58;;;9.60;;
70213;SDS011;60138;55.808;37.078;2022-11-04T05:10:31;15.90;;;9.23;;
70213;SDS011;60138;55.808;37.078;2022-11-04T05:12:57;19.15;;;9.63;;
70213;SDS011;60138;55.808;37.078;2022-11-04T05:15:24;17.67;;;10.23;;
70213;SDS011;60138;55.808;37.078;2022-11-04T05:17:54;14.13;;;9.13;;
70213;SDS011;60138;55.808;37.078;2022-11-04T05:20:24;21.10;;;11.50;;
70213;SDS011;60138;55.808;37.078;2022-11-04T05:22:50;17.35;;;9.90;;
70213;SDS011;60138;55.808;37.078;2022-11-04T05:25:16;16.07;;;9.10;;
70213;SDS011;60138;55.808;37.078;2022-11-04T05:27:42;17.55;;;10.38;;
70213;SDS011;60138;55.808;37.078;2022-11-04T05:30:08;18.37;;;10.30;;
70213;SDS011;60138;55.808;37.078;2022-11-04T05:32:34;19.85;;;9.60;;
70213;SDS011;60138;55.808;37.078;2022-11-04T05:35:00;14.30;;;8.93;;
70213;SDS011;60138;55.808;37.078;2022-11-04T05:37:25;20.73;;;10.50;;
70213;SDS011;60138;55.808;37.078;2022-11-04T05:39:51;22.17;;;11.07;;
70213;SDS011;60138;55.808;37.078;2022-11-04T05:42:17;18.10;;;9.32;;
70213;SDS011;60138;55.808;37.078;2022-11-04T05:44:43;15.50;;;8.98;;
70213;SDS011;60138;55.808;37.078;2022-11-04T05:47:09;17.23;;;9.33;;
70213;SDS011;60138;55.808;37.078;2022-11-04T05:49:34;19.67;;;9.43;;
70213;SDS011;60138;55.808;37.078;2022-11-04T05:52:00;18.70;;;9.93;;
70213;SDS011;60138;55.808;37.078;2022-11-04T05:54:26;16.67;;;9.60;;
70213;SDS011;60138;55.808;37.078;2022-11-04T05:56:51;19.95;;;10.05;;
70213;SDS011;60138;55.808;37.078;2022-11-04T05:59:17;13.32;;;8.80;;
70213;SDS011;60138;55.808;37.078;2022-11-04T06:01:43;16.30;;;9.03;;
70213;SDS011;60138;55.808;37.078;2022-11-04T06:04:13;12.05;;;8.00;;
70213;SDS011;60138;55.808;37.078;2022-11-04T06:06:40;13.90;;;8.73;;
70213;SDS011;60138;55.808;37.078;2022-11-04T06:09:06;12.48;;;8.35;;
70213;SDS011;60138;55.808;37.078;2022-11-04T06:11:32;16.63;;;9.63;;
70213;SDS011;60138;55.808;37.078;2022-11-04T06:13:58;15.10;;;8.90;;
70213;SDS011;60138;55.808;37.078;2022-11-04T06:16:24;17.35;;;10.57;;
70213;SDS011;60138;55.808;37.078;2022-11-04T06:18:50;15.33;;;10.17;;
70213;SDS011;60138;55.808;37.078;2022-11-04T06:23:41;31.37;;;16.67;;
70213;SDS011;60138;55.808;37.078;2022-11-04T06:26:08;21.83;;;11.10;;
70213;SDS011;60138;55.808;37.078;2022-11-04T06:28:35;17.27;;;10.82;;
70213;SDS011;60138;55.808;37.078;2022-11-04T06:31:02;15.13;;;8.97;;
70213;SDS011;60138;55.808;37.078;2022-11-04T06:33:28;13.98;;;8.07;;
70213;SDS011;60138;55.808;37.078;2022-11-04T06:35:58;14.65;;;9.38;;
70213;SDS011;60138;55.808;37.078;2022-11-04T06:38:27;17.98;;;10.23;;
70213;SDS011;60138;55.808;37.078;2022-11-04T06:40:56;20.95;;;8.88;;
70213;SDS011;60138;55.808;37.078;2022-11-04T06:43:22;16.52;;;9.75;;
70213;SDS011;60138;55.808;37.078;2022-11-04T06:45:54;16.80;;;10.37;;
70213;SDS011;60138;55.808;37.078;2022-11-04T06:48:20;14.23;;;7.50;;
70213;SDS011;60138;55.808;37.078;2022-11-04T06:50:46;21.27;;;10.73;;
70213;SDS011;60138;55.808;37.078;2022-11-04T06:53:12;18.92;;;10.40;;
70213;SDS011;60138;55.808;37.078;2022-11-04T06:55:37;12.27;;;7.53;;
70213;SDS011;60138;55.808;37.078;2022-11-04T06:58:03;14.45;;;8.68;;
70213;SDS011;60138;55.808;37.078;2022-11-04T07:00:29;12.68;;;8.13;;
70213;SDS011;60138;55.808;37.078;2022-11-04T07:02:55;12.60;;;7.75;;
70213;SDS011;60138;55.808;37.078;2022-11-04T07:05:20;14.63;;;8.40;;
70213;SDS011;60138;55.808;37.078;2022-11-04T07:07:46;13.07;;;8.00;;
70213;SDS011;60138;55.808;37.078;2022-11-04T07:10:12;15.10;;;8.98;;
70213;SDS011;60138;55.808;37.078;2022-11-04T07:12:38;13.43;;;8.40;;
70213;SDS011;60138;55.808;37.078;2022-11-04T07:15:03;13.90;;;8.13;;
70213;SDS011;60138;55.808;37.078;2022-11-04T07:17:29;12.87;;;7.80;;
70213;SDS011;60138;55.808;37.078;2022-11-04T07:19:55;16.48;;;8.25;;
70213;SDS011;60138;55.808;37.078;2022-11-04T07:22:21;12.73;;;7.53;;
70213;SDS011;60138;55.808;37.078;2022-11-04T07:24:46;14.00;;;6.93;;
70213;SDS011;60138;55.808;37.078;2022-11-04T07:27:12;14.47;;;7.80;;
70213;SDS011;60138;55.808;37.078;2022-11-04T07:29:38;14.67;;;7.20;;
70213;SDS011;60138;55.808;37.078;2022-11-04T07:32:03;17.13;;;7.85;;
70213;SDS011;60138;55.808;37.078;2022-11-04T07:34:29;13.00;;;8.15;;
70213;SDS011;60138;55.808;37.078;2022-11-04T07:36:55;16.02;;;9.07;;
70213;SDS011;60138;55.808;37.078;2022-11-04T07:39:21;13.93;;;8.70;;
70213;SDS011;60138;55.808;37.078;2022-11-04T07:41:46;17.58;;;8.48;;
70213;SDS011;60138;55.808;37.078;2022-11-04T07:44:12;14.48;;;8.07;;
70213;SDS011;60138;55.808;37.078;2022-11-04T07:46:37;14.77;;;8.53;;
70213;SDS011;60138;55.808;37.078;2022-11-04T07:49:03;14.38;;;7.60;;
70213;SDS011;60138;55.808;37.078;2022-11-04T07:51:29;14.40;;;8.27;;
70213;SDS011;60138;55.808;37.078;2022-11-04T07:53:55;15.70;;;8.07;;
70213;SDS011;60138;55.808;37.078;2022-11-04T07:56:21;18.40;;;8.10;;
70213;SDS011;60138;55.808;37.078;2022-11-04T07:58:47;14.85;;;8.52;;
70213;SDS011;60138;55.808;37.078;2022-11-04T08:01:14;12.27;;;8.03;;
70213;SDS011;60138;55.808;37.078;2022-11-04T08:03:41;15.80;;;8.35;;
70213;SDS011;60138;55.808;37.078;2022-11-04T08:06:08;15.13;;;8.27;;
70213;SDS011;60138;55.808;37.078;2022-11-04T08:08:35;11.00;;;7.03;;
70213;SDS011;60138;55.808;37.078;2022-11-04T08:11:11;12.95;;;8.18;;
70213;SDS011;60138;55.808;37.078;2022-11-04T08:13:41;14.88;;;9.18;;
70213;SDS011;60138;55.808;37.078;2022-11-04T08:16:12;12.80;;;7.78;;
70213;SDS011;60138;55.808;37.078;2022-11-04T08:18:41;14.65;;;7.70;;
70213;SDS011;60138;55.808;37.078;2022-11-04T08:21:08;14.53;;;8.13;;
70213;SDS011;60138;55.808;37.078;2022-11-04T08:23:34;15.02;;;7.68;;
70213;SDS011;60138;55.808;37.078;2022-11-04T08:26:00;18.77;;;7.97;;
70213;SDS011;60138;55.808;37.078;2022-11-04T08:28:26;13.70;;;8.27;;
70213;SDS011;60138;55.808;37.078;2022-11-04T08:33:19;14.85;;;7.97;;
70213;SDS011;60138;55.808;37.078;2022-11-04T08:35:44;14.07;;;8.27;;
70213;SDS011;60138;55.808;37.078;2022-11-04T08:38:10;15.35;;;8.27;;
70213;SDS011;60138;55.808;37.078;2022-11-04T08:40:36;16.87;;;7.80;;
70213;SDS011;60138;55.808;37.078;2022-11-04T08:43:01;14.07;;;7.90;;
70213;SDS011;60138;55.808;37.078;2022-11-04T08:45:27;14.30;;;7.10;;
70213;SDS011;60138;55.808;37.078;2022-11-04T08:47:53;13.53;;;7.40;;
70213;SDS011;60138;55.808;37.078;2022-11-04T08:50:18;14.25;;;7.90;;
70213;SDS011;60138;55.808;37.078;2022-11-04T08:52:44;12.23;;;6.90;;
70213;SDS011;60138;55.808;37.078;2022-11-04T08:55:10;12.63;;;7.43;;
70213;SDS011;60138;55.808;37.078;2022-11-04T08:57:37;11.77;;;7.35;;
70213;SDS011;60138;55.808;37.078;2022-11-04T09:00:04;14.23;;;7.75;;
70213;SDS011;60138;55.808;37.078;2022-11-04T09:02:30;11.57;;;6.80;;
70213;SDS011;60138;55.808;37.078;2022-11-04T09:04:55;17.42;;;8.32;;
70213;SDS011;60138;55.808;37.078;2022-11-04T09:07:21;16.83;;;7.78;;
70213;SDS011;60138;55.808;37.078;2022-11-04T09:09:47;11.57;;;7.63;;
70213;SDS011;60138;55.808;37.078;2022-11-04T09:12:12;12.10;;;7.32;;
70213;SDS011;60138;55.808;37.078;2022-11-04T09:14:38;15.87;;;7.73;;
70213;SDS011;60138;55.808;37.078;2022-11-04T09:17:04;12.48;;;7.55;;
70213;SDS011;60138;55.808;37.078;2022-11-04T09:19:29;14.57;;;7.43;;
70213;SDS011;60138;55.808;37.078;2022-11-04T09:21:55;12.60;;;8.37;;
70213;SDS011;60138;55.808;37.078;2022-11-04T09:24:21;16.40;;;8.98;;
70213;SDS011;60138;55.808;37.078;2022-11-04T09:26:46;13.97;;;10.00;;
70213;SDS011;60138;55.808;37.078;2022-11-04T09:29:12;15.10;;;7.85;;
70213;SDS011;60138;55.808;37.078;2022-11-04T09:31:38;13.57;;;7.30;;
70213;SDS011;60138;55.808;37.078;2022-11-04T09:34:03;15.07;;;7.03;;
70213;SDS011;60138;55.808;37.078;2022-11-04T09:36:29;17.35;;;8.60;;
70213;SDS011;60138;55.808;37.078;2022-11-04T09:38:55;12.50;;;7.97;;
70213;SDS011;60138;55.808;37.078;2022-11-04T09:41:33;22.58;;;9.98;;
70213;SDS011;60138;55.808;37.078;2022-11-04T09:47:09;9.52;;;7.15;;
70213;SDS011;60138;55.808;37.078;2022-11-04T09:49:37;10.98;;;7.25;;
70213;SDS011;60138;55.808;37.078;2022-11-04T09:52:28;13.45;;;7.60;;
70213;SDS011;60138;55.808;37.078;2022-11-04T09:57:49;13.17;;;7.67;;
70213;SDS011;60138;55.808;37.078;2022-11-04T10:00:19;13.15;;;8.20;;
70213;SDS011;60138;55.808;37.078;2022-11-04T10:03:04;13.90;;;8.95;;
70213;SDS011;60138;55.808;37.078;2022-11-04T10:14:13;12.35;;;7.32;;
70213;SDS011;60138;55.808;37.078;2022-11-04T10:19:39;11.03;;;7.93;;
70213;SDS011;60138;55.808;37.078;2022-11-04T10:24:55;12.43;;;7.63;;
70213;SDS011;60138;55.808;37.078;2022-11-04T10:27:37;12.85;;;7.30;;
70213;SDS011;60138;55.808;37.078;2022-11-04T10:30:15;10.48;;;7.63;;
70213;SDS011;60138;55.808;37.078;2022-11-04T10:35:46;13.43;;;8.63;;
70213;SDS011;60138;55.808;37.078;2022-11-04T10:38:23;15.23;;;9.70;;
70213;SDS011;60138;55.808;37.078;2022-11-04T10:40:52;15.60;;;9.20;;
70213;SDS011;60138;55.808;37.078;2022-11-04T10:43:40;14.77;;;9.90;;
70213;SDS011;60138;55.808;37.078;2022-11-04T10:51:19;13.45;;;8.65;;
70213;SDS011;60138;55.808;37.078;2022-11-04T10:53:44;14.93;;;8.45;;
70213;SDS011;60138;55.808;37.078;2022-11-04T10:58:43;13.33;;;7.83;;
70213;SDS011;60138;55.808;37.078;2022-11-04T11:04:25;12.25;;;7.90;;
70213;SDS011;60138;55.808;37.078;2022-11-04T11:06:55;13.15;;;8.55;;
70213;SDS011;60138;55.808;37.078;2022-11-04T11:09:55;12.18;;;8.15;;
70213;SDS011;60138;55.808;37.078;2022-11-04T11:12:17;13.80;;;9.02;;
70213;SDS011;60138;55.808;37.078;2022-11-04T11:14:45;14.57;;;9.93;;
70213;SDS011;60138;55.808;37.078;2022-11-04T11:19:49;13.65;;;8.75;;
70213;SDS011;60138;55.808;37.078;2022-11-04T11:27:37;17.40;;;10.07;;
70213;SDS011;60138;55.808;37.078;2022-11-04T11:30:04;16.85;;;10.05;;
70213;SDS011;60138;55.808;37.078;2022-11-04T11:32:31;15.75;;;10.13;;
70213;SDS011;60138;55.808;37.078;2022-11-04T11:34:58;15.90;;;9.37;;
70213;SDS011;60138;55.808;37.078;2022-11-04T11:37:24;13.43;;;9.23;;
70213;SDS011;60138;55.808;37.078;2022-11-04T11:39:50;12.80;;;9.13;;
70213;SDS011;60138;55.808;37.078;2022-11-04T11:42:15;15.47;;;9.33;;
70213;SDS011;60138;55.808;37.078;2022-11-04T11:44:52;15.82;;;9.90;;
70213;SDS011;60138;55.808;37.078;2022-11-04T11:52:45;14.10;;;9.02;;
70213;SDS011;60138;55.808;37.078;2022-11-04T11:55:33;13.25;;;8.68;;
70213;SDS011;60138;55.808;37.078;2022-11-04T12:03:40;15.93;;;8.68;;
70213;SDS011;60138;55.808;37.078;2022-11-04T12:17:34;15.07;;;9.20;;
70213;SDS011;60138;55.808;37.078;2022-11-04T12:33:48;14.50;;;9.27;;
70213;SDS011;60138;55.808;37.078;2022-11-04T12:36:38;12.00;;;8.55;;
70213;SDS011;60138;55.808;37.078;2022-11-04T12:47:12;14.85;;;8.90;;
70213;SDS011;60138;55.808;37.078;2022-11-04T13:00:17;50.40;;;23.45;;
70213;SDS011;60138;55.808;37.078;2022-11-04T13:02:46;21.53;;;12.27;;
70213;SDS011;60138;55.808;37.078;2022-11-04T13:11:00;16.42;;;9.93;;
70213;SDS011;60138;55.808;37.078;2022-11-04T13:13:34;16.02;;;9.35;;
70213;SDS011;60138;55.808;37.078;2022-11-04T13:16:05;20.48;;;10.23;;
70213;SDS011;60138;55.808;37.078;2022-11-04T13:18:36;15.55;;;9.27;;
70213;SDS011;60138;55.808;37.078;2022-11-04T13:21:12;18.60;;;11.33;;
70213;SDS011;60138;55.808;37.078;2022-11-04T13:26:15;19.48;;;10.18;;
70213;SDS011;60138;55.808;37.078;2022-11-04T13:28:42;17.27;;;9.73;;
70213;SDS011;60138;55.808;37.078;2022-11-04T13:31:18;17.98;;;9.70;;
70213;SDS011;60138;55.808;37.078;2022-11-04T13:36:36;18.55;;;9.52;;
70213;SDS011;60138;55.808;37.078;2022-11-04T13:41:56;19.42;;;10.45;;
70213;SDS011;60138;55.808;37.078;2022-11-04T13:44:30;17.52;;;10.10;;
70213;SDS011;60138;55.808;37.078;2022-11-04T13:47:03;18.80;;;9.32;;
70213;SDS011;60138;55.808;37.078;2022-11-04T13:49:37;17.37;;;9.90;;
70213;SDS011;60138;55.808;37.078;2022-11-04T13:52:10;17.40;;;9.52;;
70213;SDS011;60138;55.808;37.078;2022-11-04T13:54:38;16.92;;;11.00;;
70213;SDS011;60138;55.808;37.078;2022-11-04T13:57:08;16.38;;;10.57;;
70213;SDS011;60138;55.808;37.078;2022-11-04T13:59:40;15.75;;;10.25;;
70213;SDS011;60138;55.808;37.078;2022-11-04T14:04:36;21.40;;;11.13;;
70213;SDS011;60138;55.808;37.078;2022-11-04T14:07:03;21.65;;;13.25;;
70213;SDS011;60138;55.808;37.078;2022-11-04T14:09:35;20.90;;;12.55;;
70213;SDS011;60138;55.808;37.078;2022-11-04T14:14:39;21.65;;;11.25;;
70213;SDS011;60138;55.808;37.078;2022-11-04T14:22:51;18.35;;;10.00;;
70213;SDS011;60138;55.808;37.078;2022-11-04T14:25:19;16.55;;;9.57;;
70213;SDS011;60138;55.808;37.078;2022-11-04T14:27:51;17.20;;;9.43;;
70213;SDS011;60138;55.808;37.078;2022-11-04T14:30:45;18.42;;;9.98;;
70213;SDS011;60138;55.808;37.078;2022-11-04T14:38:41;17.63;;;10.43;;
70213;SDS011;60138;55.808;37.078;2022-11-04T14:41:18;17.08;;;10.50;;
70213;SDS011;60138;55.808;37.078;2022-11-04T14:43:56;18.90;;;10.48;;
70213;SDS011;60138;55.808;37.078;2022-11-04T14:46:27;18.27;;;11.70;;
70213;SDS011;60138;55.808;37.078;2022-11-04T14:48:56;22.13;;;12.83;;
70213;SDS011;60138;55.808;37.078;2022-11-04T14:51:30;22.98;;;11.82;;
70213;SDS011;60138;55.808;37.078;2022-11-04T14:54:12;21.08;;;11.68;;
70213;SDS011;60138;55.808;37.078;2022-11-04T14:56:46;17.33;;;10.68;;
70213;SDS011;60138;55.808;37.078;2022-11-04T14:59:22;17.93;;;10.93;;
70213;SDS011;60138;55.808;37.078;2022-11-04T15:01:50;17.75;;;9.38;;
70213;SDS011;60138;55.808;37.078;2022-11-04T15:07:01;16.33;;;9.85;;
70213;SDS011;60138;55.808;37.078;2022-11-04T15:09:29;18.85;;;11.18;;
70213;SDS011;60138;55.808;37.078;2022-11-04T15:12:18;19.33;;;10.03;;
70213;SDS011;60138;55.808;37.078;2022-11-04T15:14:43;18.33;;;11.60;;
70213;SDS011;60138;55.808;37.078;2022-11-04T15:17:09;19.75;;;10.60;;
70213;SDS011;60138;55.808;37.078;2022-11-04T15:19:43;16.90;;;11.17;;
70213;SDS011;60138;55.808;37.078;2022-11-04T15:22:14;21.30;;;10.73;;
70213;SDS011;60138;55.808;37.078;2022-11-04T15:24:40;17.25;;;10.43;;
70213;SDS011;60138;55.808;37.078;2022-11-04T15:27:17;19.85;;;10.52;;
70213;SDS011;60138;55.808;37.078;2022-11-04T15:29:57;19.98;;;11.50;;
70213;SDS011;60138;55.808;37.078;2022-11-04T15:32:24;20.65;;;10.60;;
70213;SDS011;60138;55.808;37.078;2022-11-04T15:34:50;19.45;;;11.27;;
70213;SDS011;60138;55.808;37.078;2022-11-04T15:37:18;17.47;;;10.47;;
70213;SDS011;60138;55.808;37.078;2022-11-04T15:39:46;19.73;;;10.00;;
70213;SDS011;60138;55.808;37.078;2022-11-04T15:42:21;20.25;;;9.75;;
70213;SDS011;60138;55.808;37.078;2022-11-04T15:44:52;15.57;;;8.68;;
70213;SDS011;60138;55.808;37.078;2022-11-04T15:47:21;15.13;;;9.80;;
70213;SDS011;60138;55.808;37.078;2022-11-04T15:49:49;13.90;;;9.53;;
70213;SDS011;60138;55.808;37.078;2022-11-04T15:52:18;17.52;;;9.07;;
70213;SDS011;60138;55.808;37.078;2022-11-04T15:54:49;13.80;;;8.80;;
70213;SDS011;60138;55.808;37.078;2022-11-04T15:57:23;14.60;;;10.43;;
70213;SDS011;60138;55.808;37.078;2022-11-04T16:00:22;18.88;;;9.68;;
70213;SDS011;60138;55.808;37.078;2022-11-04T16:02:48;14.68;;;10.20;;
70213;SDS011;60138;55.808;37.078;2022-11-04T16:05:24;18.30;;;8.48;;
70213;SDS011;60138;55.808;37.078;2022-11-04T16:10:44;14.13;;;8.77;;
70213;SDS011;60138;55.808;37.078;2022-11-04T16:20:48;12.77;;;8.32;;
70213;SDS011;60138;55.808;37.078;2022-11-04T16:23:17;14.07;;;8.40;;
70213;SDS011;60138;55.808;37.078;2022-11-04T16:25:45;14.18;;;8.88;;
70213;SDS011;60138;55.808;37.078;2022-11-04T16:28:19;12.63;;;8.70;;
70213;SDS011;60138;55.808;37.078;2022-11-04T16:30:58;13.30;;;8.15;;
70213;SDS011;60138;55.808;37.078;2022-11-04T16:33:25;13.25;;;8.93;;
70213;SDS011;60138;55.808;37.078;2022-11-04T16:35:50;14.30;;;8.40;;
70213;SDS011;60138;55.808;37.078;2022-11-04T16:38:16;14.75;;;8.82;;
70213;SDS011;60138;55.808;37.078;2022-11-04T16:40:42;14.67;;;7.93;;
70213;SDS011;60138;55.808;37.078;2022-11-04T16:43:11;24.52;;;12.80;;
70213;SDS011;60138;55.808;37.078;2022-11-04T16:45:38;19.90;;;10.20;;
70213;SDS011;60138;55.808;37.078;2022-11-04T16:48:05;18.70;;;10.25;;
70213;SDS011;60138;55.808;37.078;2022-11-04T16:50:31;14.13;;;9.18;;
70213;SDS011;60138;55.808;37.078;2022-11-04T16:52:57;14.27;;;9.70;;
70213;SDS011;60138;55.808;37.078;2022-11-04T16:55:23;11.95;;;7.80;;
70213;SDS011;60138;55.808;37.078;2022-11-04T16:57:52;12.32;;;7.78;;
70213;SDS011;60138;55.808;37.078;2022-11-04T17:00:22;13.38;;;7.25;;
70213;SDS011;60138;55.808;37.078;2022-11-04T17:02:49;12.55;;;8.50;;
70213;SDS011;60138;55.808;37.078;2022-11-04T17:05:15;12.18;;;7.53;;
70213;SDS011;60138;55.808;37.078;2022-11-04T17:07:41;12.20;;;7.30;;
70213;SDS011;60138;55.808;37.078;2022-11-04T17:10:14;11.00;;;7.65;;
70213;SDS011;60138;55.808;37.078;2022-11-04T17:12:42;12.25;;;7.40;;
70213;SDS011;60138;55.808;37.078;2022-11-04T17:15:09;10.53;;;7.40;;
70213;SDS011;60138;55.808;37.078;2022-11-04T17:17:35;10.77;;;7.07;;
70213;SDS011;60138;55.808;37.078;2022-11-04T17:20:00;10.70;;;7.37;;
70213;SDS011;60138;55.808;37.078;2022-11-04T17:22:28;13.85;;;8.90;;
70213;SDS011;60138;55.808;37.078;2022-11-04T17:24:56;13.48;;;8.35;;